createdAt,value
2019-01-07T00:01:05.262Z,4.40
2019-01-07T00:03:58.076Z,4.30
2019-01-07T00:06:45.938Z,4.30
2019-01-07T00:09:16.310Z,4.40
2019-01-07T00:11:46.681Z,4.30
2019-01-07T00:14:17.069Z,4.40
2019-01-07T00:16:47.450Z,4.40
2019-01-07T00:19:17.838Z,4.30
2019-01-07T00:21:48.214Z,4.30
2019-01-07T00:24:18.602Z,4.40
2019-01-07T00:26:48.973Z,4.40
2019-01-07T00:29:19.343Z,4.40
2019-01-07T00:31:49.729Z,4.40
2019-01-07T00:34:20.089Z,4.40
2019-01-07T00:36:50.445Z,4.30
2019-01-07T00:39:20.834Z,4.40
2019-01-07T00:41:51.469Z,4.30
2019-01-07T00:44:21.853Z,4.30
2019-01-07T00:46:52.196Z,4.30
2019-01-07T00:49:22.613Z,4.40
2019-01-07T00:51:52.973Z,4.50
2019-01-07T00:54:23.349Z,4.40
2019-01-07T00:56:53.722Z,4.20
2019-01-07T00:59:24.111Z,4.20
2019-01-07T01:01:54.623Z,4.20
2019-01-07T01:04:25.041Z,4.20
2019-01-07T01:06:55.447Z,4.30
2019-01-07T01:09:25.830Z,4.30
2019-01-07T01:11:56.208Z,4.40
2019-01-07T01:14:26.573Z,4.30
2019-01-07T01:16:56.926Z,4.30
2019-01-07T01:19:27.339Z,4.30
2019-01-07T01:21:57.699Z,4.30
2019-01-07T01:24:28.079Z,4.20
2019-01-07T01:26:58.447Z,4.00
2019-01-07T01:29:28.846Z,4.00
2019-01-07T01:31:59.269Z,4.00
2019-01-07T01:34:29.646Z,4.10
2019-01-07T01:37:00.030Z,4.00
2019-01-07T01:39:30.489Z,4.10
2019-01-07T01:42:00.891Z,4.20
2019-01-07T01:44:31.339Z,4.10
2019-01-07T01:47:01.694Z,4.10
2019-01-07T01:49:32.077Z,4.20
2019-01-07T01:52:02.456Z,4.20
2019-01-07T01:54:32.842Z,4.20
2019-01-07T01:57:03.335Z,4.20
2019-01-07T01:59:33.742Z,4.20
2019-01-07T02:02:04.114Z,4.30
2019-01-07T02:04:34.465Z,4.30
2019-01-07T02:07:04.851Z,4.30
2019-01-07T02:09:35.209Z,4.30
2019-01-07T02:12:05.603Z,4.30
2019-01-07T02:14:36.044Z,4.40
2019-01-07T02:17:06.435Z,4.50
2019-01-07T02:19:36.785Z,4.50
2019-01-07T02:22:07.174Z,4.50
2019-01-07T02:24:37.570Z,4.40
2019-01-07T02:27:07.986Z,4.30
2019-01-07T02:29:38.357Z,4.40
2019-01-07T02:32:08.722Z,4.40
2019-01-07T02:34:39.150Z,4.40
2019-01-07T02:37:09.536Z,4.40
2019-01-07T02:39:39.897Z,4.30
2019-01-07T02:42:20.879Z,4.40
2019-01-07T02:44:51.253Z,4.40
2019-01-07T02:47:21.614Z,4.40
2019-01-07T02:49:51.970Z,4.40
2019-01-07T02:52:22.355Z,4.40
2019-01-07T02:54:52.731Z,4.40
2019-01-07T02:57:23.167Z,4.40
2019-01-07T02:59:53.542Z,4.30
2019-01-07T03:02:23.923Z,4.30
2019-01-07T03:04:54.301Z,4.40
2019-01-07T03:07:27.414Z,4.30
2019-01-07T03:09:57.794Z,4.30
2019-01-07T03:12:28.159Z,4.30
2019-01-07T03:14:58.610Z,4.40
2019-01-07T03:17:28.990Z,4.30
2019-01-07T03:19:59.376Z,4.30
2019-01-07T03:22:29.737Z,4.20
2019-01-07T03:25:00.176Z,4.10
2019-01-07T03:27:30.577Z,4.10
2019-01-07T03:30:01.018Z,4.10
2019-01-07T03:32:31.471Z,4.20
2019-01-07T03:35:01.875Z,4.20
2019-01-07T03:37:32.218Z,4.30
2019-01-07T03:40:02.606Z,4.30
2019-01-07T03:42:32.970Z,4.40
2019-01-07T03:45:03.348Z,4.30
2019-01-07T03:47:33.709Z,4.30
2019-01-07T03:50:04.285Z,4.30
2019-01-07T03:52:34.651Z,4.20
2019-01-07T03:55:05.128Z,4.20
2019-01-07T03:57:35.497Z,4.30
2019-01-07T04:00:06.365Z,4.30
2019-01-07T04:02:36.732Z,4.30
2019-01-07T04:05:07.107Z,4.30
2019-01-07T04:07:37.496Z,4.20
2019-01-07T04:10:07.894Z,4.20
2019-01-07T04:12:38.340Z,4.30
2019-01-07T04:15:08.702Z,4.30
2019-01-07T04:17:39.831Z,4.30
2019-01-07T04:20:10.299Z,4.30
2019-01-07T04:22:40.682Z,4.30
2019-01-07T04:25:11.045Z,4.30
2019-01-07T04:27:41.479Z,4.30
2019-01-07T04:30:11.887Z,4.30
2019-01-07T04:32:42.268Z,4.30
2019-01-07T04:35:12.665Z,4.30
2019-01-07T04:37:43.064Z,4.20
2019-01-07T04:40:13.510Z,4.10
2019-01-07T04:42:43.897Z,4.10
2019-01-07T04:45:14.303Z,4.10
2019-01-07T04:47:44.678Z,4.10
2019-01-07T04:50:15.051Z,4.10
2019-01-07T04:52:45.411Z,4.10
2019-01-07T04:55:51.538Z,4.10
2019-01-07T04:58:21.918Z,4.20
2019-01-07T05:00:52.293Z,4.20
2019-01-07T05:03:22.695Z,4.00
2019-01-07T05:05:53.070Z,4.10
2019-01-07T05:08:23.475Z,4.00
2019-01-07T05:10:53.834Z,4.10
2019-01-07T05:13:24.238Z,4.20
2019-01-07T05:15:54.594Z,4.20
2019-01-07T05:18:24.942Z,4.20
2019-01-07T05:20:55.294Z,4.20
2019-01-07T05:23:25.687Z,4.20
2019-01-07T05:25:56.075Z,4.30
2019-01-07T05:28:26.436Z,4.30
2019-01-07T05:30:56.813Z,4.30
2019-01-07T05:33:27.209Z,4.30
2019-01-07T05:35:57.669Z,4.30
2019-01-07T05:38:31.126Z,4.20
2019-01-07T05:41:01.538Z,4.30
2019-01-07T05:43:32.612Z,4.30
2019-01-07T05:46:03.001Z,4.20
2019-01-07T05:48:33.443Z,4.30
2019-01-07T05:51:03.911Z,4.20
2019-01-07T05:53:34.964Z,4.20
2019-01-07T05:56:45.527Z,4.20
2019-01-07T05:59:45.229Z,4.30
2019-01-07T06:03:02.863Z,4.30
2019-01-07T06:06:08.355Z,4.20
2019-01-07T06:08:48.064Z,4.20
2019-01-07T06:11:53.951Z,4.30
2019-01-07T06:14:53.811Z,4.30
2019-01-07T06:18:11.425Z,4.30
2019-01-07T06:20:54.917Z,4.20
2019-01-07T06:23:46.835Z,4.20
2019-01-07T06:26:19.646Z,4.20
2019-01-07T06:28:49.997Z,4.20
2019-01-07T06:31:20.381Z,4.20
2019-01-07T06:33:50.791Z,4.20
2019-01-07T06:36:21.190Z,4.20
2019-01-07T06:38:51.609Z,4.20
2019-01-07T06:41:22.025Z,4.20
2019-01-07T06:43:52.400Z,4.20
2019-01-07T06:46:22.757Z,4.20
2019-01-07T06:48:54.050Z,4.20
2019-01-07T06:51:24.422Z,4.20
2019-01-07T06:53:55.074Z,4.10
2019-01-07T06:56:25.440Z,4.10
2019-01-07T06:58:55.779Z,4.10
2019-01-07T07:01:26.145Z,4.20
2019-01-07T07:03:56.535Z,4.10
2019-01-07T07:06:27.086Z,4.10
2019-01-07T07:08:57.638Z,4.10
2019-01-07T07:11:27.998Z,4.10
2019-01-07T07:13:58.373Z,4.10
2019-01-07T07:16:28.753Z,4.10
2019-01-07T07:18:59.110Z,4.10
2019-01-07T07:21:29.482Z,4.10
2019-01-07T07:23:59.897Z,4.10
2019-01-07T07:26:30.368Z,4.20
2019-01-07T07:29:00.773Z,4.20
2019-01-07T07:31:31.198Z,4.10
2019-01-07T07:34:01.575Z,4.10
2019-01-07T07:36:31.998Z,4.10
2019-01-07T07:39:02.392Z,3.90
2019-01-07T07:41:32.957Z,3.80
2019-01-07T07:44:03.951Z,3.70
2019-01-07T07:46:35.078Z,3.70
2019-01-07T07:49:06.709Z,3.50
2019-01-07T07:51:38.864Z,3.50
2019-01-07T07:54:09.255Z,3.60
2019-01-07T07:56:39.793Z,3.60
2019-01-07T07:59:10.520Z,3.50
2019-01-07T08:01:40.966Z,3.60
2019-01-07T08:04:11.658Z,3.50
2019-01-07T08:06:43.486Z,3.50
2019-01-07T08:09:14.146Z,3.70
2019-01-07T08:12:15.526Z,3.80
2019-01-07T08:15:19.205Z,3.80
2019-01-07T08:18:11.627Z,3.90
2019-01-07T08:21:18.437Z,4.00
2019-01-07T08:24:17.513Z,4.10
2019-01-07T08:27:26.611Z,4.20
2019-01-07T08:30:40.421Z,4.20
2019-01-07T08:33:33.171Z,4.30
2019-01-07T08:36:41.465Z,4.30
2019-01-07T08:39:44.403Z,4.30
2019-01-07T08:42:33.644Z,4.40
2019-01-07T08:45:54.069Z,4.50
2019-01-07T08:48:57.011Z,4.50
2019-01-07T08:52:26.881Z,4.50
2019-01-07T08:55:27.670Z,4.50
2019-01-07T08:58:26.996Z,4.30
2019-01-07T09:01:19.531Z,4.40
2019-01-07T09:04:17.013Z,4.30
2019-01-07T09:07:28.266Z,4.40
2019-01-07T09:11:00.917Z,4.50
2019-01-07T09:14:30.730Z,4.60
2019-01-07T09:17:51.122Z,4.40
2019-01-07T09:20:50.840Z,4.20
2019-01-07T09:23:48.767Z,4.20
2019-01-07T09:27:12.021Z,4.20
2019-01-07T09:30:20.361Z,4.20
2019-01-07T09:33:33.799Z,4.20
2019-01-07T09:36:47.376Z,4.20
2019-01-07T09:40:01.313Z,4.30
2019-01-07T09:42:49.150Z,4.30
2019-01-07T09:45:55.635Z,4.50
2019-01-07T09:48:51.763Z,4.70
2019-01-07T09:52:09.057Z,4.80
2019-01-07T09:55:32.510Z,4.90
2019-01-07T09:58:45.763Z,4.90
2019-01-07T10:02:01.987Z,5.10
2019-01-07T10:04:44.298Z,4.90
2019-01-07T10:08:00.478Z,4.90
2019-01-07T10:10:59.053Z,5.00
2019-01-07T10:14:28.866Z,4.90
2019-01-07T10:17:39.416Z,4.80
2019-01-07T10:20:53.216Z,5.00
2019-01-07T10:23:52.476Z,5.10
2019-01-07T10:26:54.574Z,4.90
2019-01-07T10:30:00.504Z,4.80
2019-01-07T10:33:12.955Z,5.10
2019-01-07T10:36:36.438Z,5.00
2019-01-07T10:40:15.505Z,5.10
2019-01-07T10:43:12.201Z,5.20
2019-01-07T10:46:29.736Z,5.30
2019-01-07T10:49:10.843Z,5.40
2019-01-07T10:52:28.238Z,5.40
2019-01-07T10:55:24.912Z,5.30
2019-01-07T10:58:01.908Z,5.20
2019-01-07T11:00:59.918Z,5.20
2019-01-07T11:03:30.318Z,5.30
2019-01-07T11:06:00.698Z,5.30
2019-01-07T11:08:31.081Z,5.50
2019-01-07T11:11:01.437Z,5.50
2019-01-07T11:13:32.391Z,5.50
2019-01-07T11:16:02.770Z,5.50
2019-01-07T11:18:33.137Z,5.40
2019-01-07T11:21:03.569Z,5.30
2019-01-07T11:23:33.936Z,5.30
2019-01-07T11:26:04.705Z,5.10
2019-01-07T11:29:11.910Z,5.20
2019-01-07T11:31:42.329Z,5.20
2019-01-07T11:34:12.712Z,5.30
2019-01-07T11:36:43.076Z,5.20
2019-01-07T11:39:13.457Z,5.20
2019-01-07T11:41:45.348Z,5.10
2019-01-07T11:44:15.925Z,5.20
2019-01-07T11:46:46.292Z,5.30
2019-01-07T11:49:16.950Z,5.40
2019-01-07T11:51:48.265Z,5.50
2019-01-07T11:54:18.670Z,5.40
2019-01-07T11:56:49.124Z,5.30
2019-01-07T11:59:19.476Z,5.50
2019-01-07T12:01:49.837Z,5.30
2019-01-07T12:04:20.195Z,5.40
2019-01-07T12:06:50.522Z,5.50
2019-01-07T12:09:21.000Z,5.30
2019-01-07T12:11:51.587Z,5.30
2019-01-07T12:14:24.773Z,5.20
2019-01-07T12:16:54.317Z,5.10
2019-01-07T12:20:01.536Z,5.00
2019-01-07T12:22:51.481Z,5.10
2019-01-07T12:26:08.886Z,5.10
2019-01-07T12:29:32.451Z,5.00
2019-01-07T12:32:25.499Z,5.00
2019-01-07T12:35:24.342Z,5.10
2019-01-07T12:38:23.843Z,5.10
2019-01-07T12:41:28.522Z,5.10
2019-01-07T12:44:38.177Z,5.10
2019-01-07T12:47:57.858Z,5.10
2019-01-07T12:51:33.738Z,5.30
2019-01-07T12:54:27.956Z,5.20
2019-01-07T12:57:25.031Z,5.20
2019-01-07T12:59:55.394Z,5.20
2019-01-07T13:02:25.783Z,5.20
2019-01-07T13:04:56.177Z,5.30
2019-01-07T13:07:26.587Z,5.30
2019-01-07T13:09:56.951Z,5.20
2019-01-07T13:12:27.455Z,5.20
2019-01-07T13:14:57.830Z,5.10
2019-01-07T13:17:28.342Z,5.20
2019-01-07T13:19:58.710Z,5.10
2019-01-07T13:22:29.121Z,5.00
2019-01-07T13:24:59.856Z,4.90
2019-01-07T13:27:30.635Z,4.90
2019-01-07T13:30:01.146Z,5.00
2019-01-07T13:32:32.490Z,5.00
2019-01-07T13:35:03.409Z,5.00
2019-01-07T13:37:59.309Z,5.00
2019-01-07T13:40:55.121Z,4.90
2019-01-07T13:44:11.887Z,5.00
2019-01-07T13:47:28.996Z,4.90
2019-01-07T13:50:32.728Z,4.80
2019-01-07T13:53:43.292Z,4.80
2019-01-07T13:56:43.890Z,4.80
2019-01-07T13:59:58.340Z,4.80
2019-01-07T14:03:12.805Z,4.70
2019-01-07T14:06:26.847Z,4.70
2019-01-07T14:09:44.110Z,4.80
2019-01-07T14:12:57.166Z,4.70
2019-01-07T14:16:03.509Z,4.80
2019-01-07T14:18:52.853Z,4.60
2019-01-07T14:22:11.664Z,4.50
2019-01-07T14:24:59.500Z,4.50
2019-01-07T14:28:00.550Z,4.40
2019-01-07T14:31:08.011Z,4.50
2019-01-07T14:34:15.470Z,4.50
2019-01-07T14:37:21.362Z,4.50
2019-01-07T14:40:47.366Z,4.50
2019-01-07T14:43:43.302Z,4.40
2019-01-07T14:47:00.872Z,4.20
2019-01-07T14:50:05.611Z,4.10
2019-01-07T14:53:11.354Z,4.20
2019-01-07T14:56:16.942Z,4.20
2019-01-07T14:59:31.631Z,4.30
2019-01-07T15:02:33.468Z,4.30
2019-01-07T15:05:29.192Z,4.50
2019-01-07T15:08:26.601Z,4.40
2019-01-07T15:11:47.605Z,4.50
2019-01-07T15:14:58.250Z,4.40
2019-01-07T15:18:11.414Z,4.20
2019-01-07T15:21:22.830Z,4.20
2019-01-07T15:24:31.386Z,4.30
2019-01-07T15:27:23.582Z,4.20
2019-01-07T15:30:18.701Z,4.20
2019-01-07T15:33:25.002Z,4.30
2019-01-07T15:36:51.372Z,4.30
2019-01-07T15:40:07.414Z,4.30
2019-01-07T15:43:17.062Z,4.40
2019-01-07T15:46:31.074Z,4.40
2019-01-07T15:49:23.386Z,4.20
2019-01-07T15:52:28.231Z,4.10
2019-01-07T15:55:58.173Z,4.20
2019-01-07T15:59:07.080Z,4.20
2019-01-07T16:02:26.076Z,4.40
2019-01-07T16:05:29.278Z,4.30
2019-01-07T16:08:32.386Z,4.30
2019-01-07T16:12:02.192Z,4.40
2019-01-07T16:15:38.400Z,4.40
2019-01-07T16:18:50.865Z,4.50
2019-01-07T16:21:46.532Z,4.50
2019-01-07T16:24:42.286Z,4.40
2019-01-07T16:27:59.801Z,4.50
2019-01-07T16:31:08.736Z,4.40
2019-01-07T16:34:23.405Z,4.40
2019-01-07T16:37:23.233Z,4.20
2019-01-07T16:40:33.617Z,4.10
2019-01-07T16:43:47.342Z,4.20
2019-01-07T16:47:04.667Z,3.90
2019-01-07T16:50:08.274Z,3.80
2019-01-07T16:52:55.405Z,3.80
2019-01-07T16:56:10.637Z,3.90
2019-01-07T16:59:26.901Z,4.00
2019-01-07T17:02:21.406Z,4.10
2019-01-07T17:05:31.350Z,4.10
2019-01-07T17:08:40.058Z,4.10
2019-01-07T17:11:46.569Z,4.00
2019-01-07T17:14:52.844Z,4.00
2019-01-07T17:18:13.321Z,3.80
2019-01-07T17:21:19.262Z,3.60
2019-01-07T17:24:35.596Z,3.40
2019-01-07T17:27:44.211Z,3.50
2019-01-07T17:31:00.676Z,3.50
2019-01-07T17:33:57.252Z,3.40
2019-01-07T17:37:08.639Z,3.50
2019-01-07T17:40:24.764Z,3.40
2019-01-07T17:43:23.826Z,3.30
2019-01-07T17:46:41.167Z,3.40
2019-01-07T17:49:59.860Z,3.30
2019-01-07T17:53:01.265Z,3.40
2019-01-07T17:56:07.761Z,3.20
2019-01-07T17:59:16.097Z,3.00
2019-01-07T18:02:45.861Z,2.90
2019-01-07T18:05:57.105Z,2.90
2019-01-07T18:09:17.840Z,2.80
2019-01-07T18:12:34.030Z,2.80
2019-01-07T18:15:28.316Z,3.00
2019-01-07T18:18:30.679Z,3.00
2019-01-07T18:21:29.073Z,2.90
2019-01-07T18:24:34.116Z,2.80
2019-01-07T18:27:52.708Z,2.90
2019-01-07T18:30:48.597Z,2.90
2019-01-07T18:33:45.015Z,2.80
2019-01-07T18:37:04.661Z,2.70
2019-01-07T18:40:22.689Z,2.80
2019-01-07T18:43:22.457Z,2.70
2019-01-07T18:46:23.104Z,2.70
2019-01-07T18:49:36.987Z,2.70
2019-01-07T18:52:35.654Z,2.70
2019-01-07T18:55:56.359Z,2.70
2019-01-07T18:59:23.102Z,2.80
2019-01-07T19:02:30.414Z,2.80
2019-01-07T19:05:58.359Z,2.70
2019-01-07T19:08:58.338Z,2.70
2019-01-07T19:12:01.642Z,2.80
2019-01-07T19:15:29.666Z,2.70
2019-01-07T19:18:47.401Z,2.80
2019-01-07T19:22:02.954Z,2.70
2019-01-07T19:25:26.283Z,2.60
2019-01-07T19:28:42.386Z,2.60
2019-01-07T19:31:53.461Z,2.70
2019-01-07T19:35:23.300Z,2.70
2019-01-07T19:38:40.815Z,2.70
2019-01-07T19:42:06.902Z,2.60
2019-01-07T19:45:14.538Z,2.70
2019-01-07T19:48:40.998Z,2.60
2019-01-07T19:51:58.509Z,2.60
2019-01-07T19:55:02.006Z,2.60
2019-01-07T19:58:14.980Z,2.60
2019-01-07T20:01:44.763Z,2.70
2019-01-07T20:04:39.677Z,2.60
2019-01-07T20:07:42.787Z,2.60
2019-01-07T20:11:15.236Z,2.50
2019-01-07T20:14:25.747Z,2.70
2019-01-07T20:17:36.997Z,2.60
2019-01-07T20:20:16.599Z,2.50
2019-01-07T20:23:29.591Z,2.50
2019-01-07T20:26:38.139Z,2.60
2019-01-07T20:29:43.586Z,2.50
2019-01-07T20:33:11.356Z,2.40
2019-01-07T20:36:12.107Z,2.40
2019-01-07T20:39:18.241Z,2.40
2019-01-07T20:42:11.819Z,2.40
2019-01-07T20:45:25.514Z,2.30
2019-01-07T20:48:40.603Z,2.30
2019-01-07T20:51:53.969Z,2.40
2019-01-07T20:55:08.681Z,2.50
2019-01-07T20:57:59.770Z,2.40
2019-01-07T21:00:56.752Z,2.40
2019-01-07T21:04:04.633Z,2.40
2019-01-07T21:07:20.830Z,2.30
2019-01-07T21:10:14.878Z,2.20
2019-01-07T21:13:20.870Z,2.20
2019-01-07T21:16:18.845Z,2.10
2019-01-07T21:19:18.899Z,2.10
2019-01-07T21:22:48.414Z,2.20
2019-01-07T21:26:02.702Z,2.20
2019-01-07T21:28:57.313Z,2.20
2019-01-07T21:31:43.702Z,2.10
2019-01-07T21:35:02.215Z,2.10
2019-01-07T21:37:59.595Z,2.20
2019-01-07T21:41:02.226Z,2.20
2019-01-07T21:44:04.235Z,2.30
2019-01-07T21:47:04.033Z,2.20
2019-01-07T21:49:59.965Z,2.20
2019-01-07T21:53:16.699Z,2.20
2019-01-07T21:56:11.774Z,2.20
2019-01-07T21:59:24.665Z,2.30
2019-01-07T22:02:33.238Z,2.20
2019-01-07T22:05:33.618Z,2.10
2019-01-07T22:08:44.042Z,2.20
2019-01-07T22:12:10.742Z,2.20
2019-01-07T22:15:14.758Z,2.10
2019-01-07T22:18:28.071Z,2.10
2019-01-07T22:21:33.069Z,2.10
2019-01-07T22:24:19.801Z,2.10
2019-01-07T22:27:31.142Z,2.00
2019-01-07T22:30:29.765Z,2.10
2019-01-07T22:33:33.252Z,2.20
2019-01-07T22:36:36.336Z,2.10
2019-01-07T22:39:53.961Z,2.20
2019-01-07T22:42:51.749Z,2.20
2019-01-07T22:46:01.923Z,2.20
2019-01-07T22:49:28.407Z,2.20
2019-01-07T22:52:16.109Z,2.20
2019-01-07T22:55:19.603Z,2.20
2019-01-07T22:58:05.657Z,2.10
2019-01-07T23:01:35.407Z,2.10
2019-01-07T23:04:58.842Z,2.20
2019-01-07T23:07:59.171Z,2.30
2019-01-07T23:10:51.215Z,2.30
2019-01-07T23:14:11.781Z,2.20
2019-01-07T23:17:10.318Z,2.20
2019-01-07T23:20:22.080Z,2.20
2019-01-07T23:22:52.521Z,2.20
2019-01-07T23:25:22.906Z,2.20
2019-01-07T23:27:53.304Z,2.20
2019-01-07T23:30:23.726Z,2.10
2019-01-07T23:32:54.221Z,2.10
2019-01-07T23:35:24.680Z,2.10
2019-01-07T23:37:55.070Z,2.10
2019-01-07T23:40:25.430Z,2.10
2019-01-07T23:42:55.817Z,1.90
2019-01-07T23:45:26.177Z,1.90
2019-01-07T23:47:56.553Z,1.90
2019-01-07T23:50:26.934Z,2.00
2019-01-07T23:52:57.337Z,2.00
2019-01-07T23:55:27.702Z,2.00
2019-01-07T23:57:58.166Z,2.10
